Time;durP1;ratioP1;P1;durP2;ratioP2;P2;SDS_P1;SDS_P2;PMS_P1;PMS_P2;Temp;Humidity;BMP_temperature;BMP_pressure;BME280_temperature;BME280_humidity;BME280_pressure;Samples;Min_cycle;Max_cycle;Signal;HPM_P1;HPM_P2
2023/08/04 00:01:54;;;;;;;10.55;2.10;;;14.90;99.90;;;;;;5033106;28;20049;-32
2023/08/04 00:04:20;;;;;;;8.25;1.98;;;14.80;99.90;;;;;;5034879;28;20132;-32
2023/08/04 00:06:46;;;;;;;7.18;1.65;;;14.80;99.90;;;;;;5033384;28;20045;-32
2023/08/04 00:09:12;;;;;;;5.82;1.58;;;14.70;99.90;;;;;;5034223;28;20046;-32
2023/08/04 00:11:37;;;;;;;6.97;1.30;;;14.70;99.90;;;;;;5034206;28;20049;-32
2023/08/04 00:14:03;;;;;;;5.38;1.63;;;14.70;99.90;;;;;;5035007;28;20056;-32
2023/08/04 00:16:29;;;;;;;7.47;1.48;;;14.70;99.90;;;;;;5033105;28;20128;-32
2023/08/04 00:18:54;;;;;;;6.07;1.40;;;14.70;99.90;;;;;;5034110;28;20098;-32
2023/08/04 00:21:20;;;;;;;7.35;1.33;;;14.60;99.90;;;;;;5033964;28;20053;-32
2023/08/04 00:23:46;;;;;;;8.80;1.38;;;14.60;99.90;;;;;;5033136;28;20475;-32
2023/08/04 00:26:11;;;;;;;9.48;2.40;;;14.60;99.90;;;;;;5017142;28;20456;-33
2023/08/04 00:28:37;;;;;;;8.85;1.77;;;14.50;99.90;;;;;;5033931;28;20041;-32
2023/08/04 00:31:03;;;;;;;3.70;1.25;;;14.50;99.90;;;;;;5033521;28;20061;-32
2023/08/04 00:33:28;;;;;;;9.00;2.00;;;14.50;99.90;;;;;;5032328;28;20041;-32
2023/08/04 00:35:54;;;;;;;6.25;2.67;;;14.50;99.90;;;;;;5033523;28;20099;-32
2023/08/04 00:38:20;;;;;;;11.25;2.00;;;14.50;99.90;;;;;;5033814;28;20046;-32
2023/08/04 00:40:45;;;;;;;8.15;2.30;;;14.50;99.90;;;;;;5033367;28;20053;-32
2023/08/04 00:43:12;;;;;;;8.65;2.20;;;14.40;99.90;;;;;;5017108;28;20049;-32
2023/08/04 00:45:38;;;;;;;14.52;2.42;;;14.40;99.90;;;;;;5033756;28;20053;-32
2023/08/04 00:48:04;;;;;;;10.52;2.40;;;14.40;99.90;;;;;;5033359;28;20407;-32
2023/08/04 00:50:31;;;;;;;12.90;1.90;;;14.40;99.90;;;;;;5034464;28;20460;-32
2023/08/04 00:52:59;;;;;;;4.90;1.30;;;14.40;99.90;;;;;;5033639;28;20053;-32
2023/08/04 00:55:26;;;;;;;9.65;1.70;;;14.60;99.90;;;;;;5033588;28;20045;-32
2023/08/04 00:57:53;;;;;;;9.27;2.25;;;14.60;99.90;;;;;;5032669;28;20061;-32
2023/08/04 01:00:18;;;;;;;11.88;2.70;;;14.60;99.90;;;;;;5032952;28;20093;-33
2023/08/04 01:02:44;;;;;;;12.65;2.58;;;14.60;99.90;;;;;;5033528;28;20085;-31
2023/08/04 01:05:10;;;;;;;9.90;1.75;;;14.60;99.90;;;;;;5033618;28;20140;-32
2023/08/04 01:07:49;;;;;;;11.45;2.47;;;14.70;99.90;;;;;;5033583;28;20053;-32
2023/08/04 01:10:46;;;;;;;3.60;1.35;;;14.70;99.90;;;;;;5033572;28;20060;-32
2023/08/04 01:13:14;;;;;;;7.32;1.80;;;14.70;99.90;;;;;;5034098;28;20053;-31
2023/08/04 01:15:41;;;;;;;7.10;1.63;;;14.70;99.90;;;;;;5033028;28;20411;-32
2023/08/04 01:18:07;;;;;;;9.38;1.63;;;14.70;99.90;;;;;;5032774;28;20085;-32
2023/08/04 01:20:32;;;;;;;5.53;1.50;;;14.70;99.90;;;;;;5032722;28;20537;-32
2023/08/04 01:22:58;;;;;;;8.60;1.70;;;14.70;99.90;;;;;;5033375;28;20045;-32
2023/08/04 01:25:32;;;;;;;10.70;2.60;;;14.70;99.90;;;;;;5033322;28;20060;-32
2023/08/04 01:28:04;;;;;;;10.63;2.35;;;14.80;99.90;;;;;;5033651;28;20081;-32
2023/08/04 01:30:31;;;;;;;6.45;2.15;;;14.70;99.90;;;;;;5033543;28;20124;-31
2023/08/04 01:32:57;;;;;;;11.07;1.98;;;14.70;99.90;;;;;;5033357;28;20515;-31
2023/08/04 01:35:22;;;;;;;8.02;2.15;;;14.70;99.90;;;;;;5032092;28;20050;-32
2023/08/04 01:37:48;;;;;;;9.13;2.22;;;14.70;99.90;;;;;;5033239;28;20053;-32
2023/08/04 01:40:14;;;;;;;12.05;3.13;;;14.70;99.90;;;;;;5033499;28;20080;-32
2023/08/04 01:42:40;;;;;;;6.03;1.85;;;14.70;99.90;;;;;;5032243;28;20467;-33
2023/08/04 01:45:06;;;;;;;6.78;2.47;;;14.70;99.90;;;;;;5035171;28;20099;-33
2023/08/04 01:47:32;;;;;;;9.50;2.22;;;14.70;99.90;;;;;;5035768;28;20056;-32
2023/08/04 01:49:58;;;;;;;8.77;3.33;;;14.70;99.90;;;;;;5036886;28;20049;-31
2023/08/04 01:52:24;;;;;;;9.95;2.15;;;14.70;99.90;;;;;;5036810;28;20471;-32
2023/08/04 01:54:49;;;;;;;5.70;2.05;;;14.70;99.90;;;;;;5036751;28;20041;-32
2023/08/04 01:57:15;;;;;;;10.15;1.80;;;14.70;99.90;;;;;;5036718;28;20092;-32
2023/08/04 01:59:41;;;;;;;8.40;2.25;;;14.80;99.90;;;;;;5036678;28;20057;-31
2023/08/04 02:02:07;;;;;;;12.13;2.25;;;14.80;99.90;;;;;;5036608;28;20092;-32
2023/08/04 02:04:33;;;;;;;5.88;1.65;;;14.80;99.90;;;;;;5035612;28;20041;-31
2023/08/04 02:06:59;;;;;;;3.67;1.50;;;14.90;99.90;;;;;;5036585;28;20156;-31
2023/08/04 02:09:27;;;;;;;3.60;1.17;;;14.90;99.90;;;;;;5037303;28;20045;-32
2023/08/04 02:11:54;;;;;;;5.35;1.52;;;15.00;99.90;;;;;;5035317;28;20077;-32
2023/08/04 02:14:21;;;;;;;7.80;2.20;;;15.00;99.90;;;;;;5036444;28;20068;-32
2023/08/04 02:16:46;;;;;;;3.95;1.38;;;15.00;99.90;;;;;;5036066;28;20522;-32
2023/08/04 02:19:12;;;;;;;6.75;1.58;;;15.00;99.90;;;;;;5036332;28;20088;-30
2023/08/04 02:21:38;;;;;;;4.32;1.73;;;15.00;99.90;;;;;;5036200;28;20052;-33
2023/08/04 02:24:04;;;;;;;3.75;1.55;;;15.00;99.90;;;;;;5037050;28;20083;-33
2023/08/04 02:26:30;;;;;;;4.75;2.15;;;15.00;99.90;;;;;;5035041;28;20049;-33
2023/08/04 02:28:56;;;;;;;4.72;2.13;;;14.80;99.90;;;;;;5036119;28;20051;-33
2023/08/04 02:31:25;;;;;;;7.50;1.80;;;14.90;99.90;;;;;;5034805;28;20045;-33
2023/08/04 02:33:52;;;;;;;5.43;1.88;;;14.80;99.90;;;;;;5036283;28;20122;-33
2023/08/04 02:36:19;;;;;;;6.28;2.17;;;14.80;99.90;;;;;;5035971;28;20584;-33
2023/08/04 02:38:45;;;;;;;7.40;1.98;;;14.80;99.90;;;;;;5035999;28;20049;-32
2023/08/04 02:41:11;;;;;;;5.63;1.98;;;14.60;99.90;;;;;;5036665;28;20149;-33
2023/08/04 02:43:37;;;;;;;5.40;1.90;;;14.60;99.90;;;;;;5036133;28;20387;-32
2023/08/04 02:46:03;;;;;;;5.72;1.67;;;14.50;99.90;;;;;;5036364;28;20053;-32
2023/08/04 02:48:30;;;;;;;7.40;2.20;;;14.50;99.90;;;;;;5034818;28;20042;-33
2023/08/04 02:51:10;;;;;;;5.30;1.70;;;14.50;99.90;;;;;;5034820;28;20060;-33
2023/08/04 02:53:37;;;;;;;4.88;2.63;;;14.30;99.90;;;;;;5018910;28;20088;-32
2023/08/04 02:56:16;;;;;;;4.50;1.90;;;14.30;99.90;;;;;;5033702;28;20440;-33
2023/08/04 02:58:43;;;;;;;10.18;2.22;;;14.40;99.90;;;;;;5035605;28;20065;-33
2023/08/04 03:01:10;;;;;;;5.63;2.33;;;14.40;99.90;;;;;;5035494;28;20057;-34
2023/08/04 03:03:36;;;;;;;7.45;2.47;;;14.30;99.90;;;;;;5034557;28;20057;-32
2023/08/04 03:06:02;;;;;;;6.97;2.35;;;14.20;99.90;;;;;;5034356;28;20056;-33
2023/08/04 03:08:29;;;;;;;10.10;3.03;;;14.20;99.90;;;;;;5035419;28;20056;-32
2023/08/04 03:10:55;;;;;;;6.57;2.40;;;14.20;99.90;;;;;;5035922;28;20041;-32
2023/08/04 03:13:21;;;;;;;6.15;2.42;;;14.10;99.90;;;;;;5034988;28;20483;-32
2023/08/04 03:15:53;;;;;;;6.57;2.85;;;14.30;99.90;;;;;;5034188;28;20099;-33
2023/08/04 03:18:19;;;;;;;6.85;3.10;;;14.10;99.90;;;;;;5035870;28;20467;-32
2023/08/04 03:20:44;;;;;;;9.15;3.10;;;14.00;99.90;;;;;;5035428;28;20057;-32
2023/08/04 03:23:10;;;;;;;10.65;2.90;;;14.10;99.90;;;;;;5035174;28;20124;-32
2023/08/04 03:25:36;;;;;;;6.00;3.30;;;13.80;99.90;;;;;;5033908;28;20419;-32
2023/08/04 03:28:01;;;;;;;9.63;3.65;;;14.00;99.90;;;;;;5033837;28;20045;-31
2023/08/04 03:30:27;;;;;;;9.45;3.70;;;13.90;99.90;;;;;;5034906;28;20068;-32
2023/08/04 03:32:53;;;;;;;8.95;3.80;;;13.90;99.90;;;;;;5034972;28;20073;-32
2023/08/04 03:35:19;;;;;;;7.90;2.70;;;13.70;99.90;;;;;;5034948;28;20049;-32
2023/08/04 03:37:45;;;;;;;6.03;3.30;;;13.70;99.90;;;;;;5034825;28;20052;-32
2023/08/04 03:40:11;;;;;;;6.95;3.35;;;13.70;99.90;;;;;;5034254;28;20056;-32
2023/08/04 03:42:38;;;;;;;7.68;3.05;;;13.90;99.90;;;;;;5033560;28;20045;-32
2023/08/04 03:45:05;;;;;;;7.53;3.22;;;13.90;99.90;;;;;;5034737;28;20052;-32
2023/08/04 03:47:31;;;;;;;9.00;3.40;;;13.70;99.90;;;;;;5034657;28;20041;-33
2023/08/04 03:49:57;;;;;;;7.13;3.17;;;13.80;99.90;;;;;;5034674;28;20130;-31
2023/08/04 03:52:23;;;;;;;6.78;3.30;;;13.90;99.90;;;;;;5034882;28;20383;-31
2023/08/04 03:54:49;;;;;;;8.52;4.38;;;14.00;99.90;;;;;;5034518;28;20081;-31
2023/08/04 03:57:15;;;;;;;8.63;4.07;;;14.20;99.90;;;;;;5034483;28;20046;-30
2023/08/04 03:59:40;;;;;;;9.07;4.72;;;14.10;99.90;;;;;;5034705;28;20068;-29
2023/08/04 04:02:06;;;;;;;8.15;4.10;;;14.40;99.90;;;;;;5034313;28;20068;-31
2023/08/04 04:04:32;;;;;;;10.02;3.63;;;14.40;99.90;;;;;;5034383;28;20041;-31
2023/08/04 04:06:57;;;;;;;9.73;4.18;;;14.40;99.90;;;;;;5034195;28;20045;-31
2023/08/04 04:09:23;;;;;;;9.90;2.58;;;14.30;99.90;;;;;;5034101;28;20124;-32
2023/08/04 04:11:49;;;;;;;4.72;2.10;;;14.30;99.90;;;;;;5033104;28;20048;-32
2023/08/04 04:14:14;;;;;;;6.82;2.40;;;14.20;99.90;;;;;;5034178;28;20447;-32
2023/08/04 04:16:40;;;;;;;8.32;2.92;;;14.20;99.90;;;;;;5034150;28;20059;-33
2023/08/04 04:19:06;;;;;;;7.28;3.03;;;14.40;99.90;;;;;;5034369;28;20085;-32
2023/08/04 04:21:32;;;;;;;4.93;2.70;;;14.10;99.90;;;;;;5034032;28;20056;-33
2023/08/04 04:23:57;;;;;;;8.65;3.05;;;14.50;99.90;;;;;;5034233;28;20049;-33
2023/08/04 04:26:24;;;;;;;5.18;3.00;;;14.20;99.90;;;;;;5033697;28;20049;-33
2023/08/04 04:28:50;;;;;;;6.72;2.15;;;14.40;99.90;;;;;;5034479;28;20077;-32
2023/08/04 04:31:15;;;;;;;5.03;3.10;;;14.30;99.90;;;;;;5033861;28;20081;-32
2023/08/04 04:33:41;;;;;;;10.25;3.65;;;14.20;99.90;;;;;;5032629;28;20042;-32
2023/08/04 04:36:07;;;;;;;7.13;3.75;;;14.50;99.90;;;;;;5032538;28;20046;-33
2023/08/04 04:38:32;;;;;;;6.70;3.22;;;14.20;99.90;;;;;;5033837;28;20081;-33
2023/08/04 04:41:00;;;;;;;7.78;3.03;;;14.50;99.90;;;;;;5033725;28;20067;-32
2023/08/04 04:43:26;;;;;;;8.48;3.80;;;14.20;99.90;;;;;;5033751;28;20045;-33
2023/08/04 04:45:53;;;;;;;5.20;3.10;;;14.50;99.90;;;;;;5033804;28;20045;-32
2023/08/04 04:48:19;;;;;;;5.55;3.05;;;14.20;99.90;;;;;;5032774;28;20053;-32
2023/08/04 04:50:45;;;;;;;3.30;2.55;;;14.30;99.90;;;;;;5033090;28;20056;-34
2023/08/04 04:53:11;;;;;;;8.00;2.75;;;14.30;99.90;;;;;;5033643;28;20049;-32
2023/08/04 04:55:36;;;;;;;5.68;3.30;;;14.70;99.90;;;;;;5033656;28;20049;-32
2023/08/04 04:58:02;;;;;;;10.27;3.55;;;14.70;99.90;;;;;;5032501;28;20042;-32
2023/08/04 05:00:28;;;;;;;5.63;3.35;;;14.70;99.90;;;;;;5034106;28;20119;-33
2023/08/04 05:02:54;;;;;;;10.70;4.25;;;14.40;99.90;;;;;;5033458;28;20128;-34
2023/08/04 05:05:19;;;;;;;6.20;3.95;;;14.80;99.90;;;;;;5032626;28;20049;-34
2023/08/04 05:07:45;;;;;;;6.80;4.15;;;14.70;99.90;;;;;;5032354;28;20048;-34
2023/08/04 05:10:11;;;;;;;11.15;4.20;;;14.60;99.90;;;;;;5033511;28;20049;-36
2023/08/04 05:12:37;;;;;;;5.15;3.83;;;14.90;99.90;;;;;;5016022;28;20396;-34
2023/08/04 05:15:03;;;;;;;6.60;4.00;;;14.90;99.90;;;;;;5032007;28;20507;-34
2023/08/04 05:17:29;;;;;;;8.70;3.92;;;14.90;99.90;;;;;;5033623;28;20100;-33
2023/08/04 05:19:54;;;;;;;11.00;3.97;;;14.90;99.90;;;;;;5035134;28;20498;-33
2023/08/04 05:22:20;;;;;;;6.95;4.00;;;14.80;99.90;;;;;;5037338;28;20128;-34
2023/08/04 05:24:46;;;;;;;6.10;3.40;;;15.10;99.90;;;;;;5019620;28;20072;-34
2023/08/04 05:27:12;;;;;;;8.30;3.30;;;15.10;99.90;;;;;;5036971;28;20052;-34
2023/08/04 05:29:37;;;;;;;6.88;3.38;;;15.00;99.90;;;;;;5036391;28;20597;-34
2023/08/04 05:32:03;;;;;;;3.75;2.50;;;15.00;99.90;;;;;;5037140;28;20091;-34
2023/08/04 05:34:29;;;;;;;8.40;3.38;;;15.30;99.90;;;;;;5037068;28;20464;-34
2023/08/04 05:36:55;;;;;;;6.40;3.20;;;15.10;99.90;;;;;;5037132;28;20037;-33
2023/08/04 05:39:21;;;;;;;3.95;2.28;;;15.20;99.90;;;;;;5037616;28;20107;-35
2023/08/04 05:41:47;;;;;;;6.97;3.47;;;15.10;99.90;;;;;;5019391;28;20049;-33
2023/08/04 05:44:13;;;;;;;6.22;3.22;;;15.20;99.90;;;;;;5020360;28;20057;-33
2023/08/04 05:46:39;;;;;;;7.25;3.10;;;15.40;99.90;;;;;;5036965;28;20045;-35
2023/08/04 05:49:06;;;;;;;5.45;2.80;;;15.30;99.90;;;;;;5019291;28;20103;-34
2023/08/04 05:51:31;;;;;;;6.50;2.33;;;15.40;99.90;;;;;;5035739;28;20136;-33
2023/08/04 05:53:57;;;;;;;4.35;2.00;;;15.30;99.90;;;;;;5037367;28;20136;-34
2023/08/04 05:56:23;;;;;;;3.45;2.20;;;15.40;99.90;;;;;;5037865;28;20099;-34
2023/08/04 05:58:48;;;;;;;5.65;2.40;;;15.50;99.90;;;;;;5035552;28;20049;-37
2023/08/04 06:01:14;;;;;;;6.50;2.97;;;15.50;99.90;;;;;;5037468;28;20045;-34
2023/08/04 06:03:40;;;;;;;9.73;3.28;;;15.50;99.90;;;;;;5018920;28;20487;-34
2023/08/04 06:06:05;;;;;;;8.27;3.05;;;15.60;99.90;;;;;;5019247;28;20045;-34
2023/08/04 06:08:31;;;;;;;5.78;3.15;;;15.60;99.90;;;;;;5036772;28;20123;-35
2023/08/04 06:10:58;;;;;;;8.95;3.03;;;15.70;99.90;;;;;;5036495;28;20050;-34
2023/08/04 06:13:24;;;;;;;5.95;2.42;;;15.60;99.90;;;;;;5036124;28;20045;-34
2023/08/04 06:15:50;;;;;;;3.85;2.10;;;15.70;99.90;;;;;;5036958;28;20490;-34
2023/08/04 06:18:15;;;;;;;7.03;2.50;;;15.70;99.90;;;;;;5036381;28;20479;-35
2023/08/04 06:20:41;;;;;;;5.40;2.40;;;15.80;99.90;;;;;;5036267;28;20048;-34
2023/08/04 06:23:07;;;;;;;2.97;1.92;;;15.90;99.90;;;;;;5036177;28;20041;-36
2023/08/04 06:25:32;;;;;;;5.55;2.15;;;16.00;99.90;;;;;;5035275;28;20479;-35
2023/08/04 06:27:58;;;;;;;3.55;2.05;;;16.00;99.90;;;;;;5036124;28;20053;-36
2023/08/04 06:30:25;;;;;;;4.50;2.30;;;16.10;99.90;;;;;;5035214;28;20467;-35
2023/08/04 06:32:51;;;;;;;7.75;2.58;;;16.20;99.90;;;;;;5034858;28;20499;-34
2023/08/04 06:35:17;;;;;;;5.13;2.33;;;16.30;99.90;;;;;;5036099;28;20045;-37
2023/08/04 06:37:43;;;;;;;6.57;2.28;;;16.40;99.90;;;;;;5036083;28;20478;-37
2023/08/04 06:40:09;;;;;;;6.63;2.85;;;16.40;99.90;;;;;;5035840;28;20049;-37
2023/08/04 06:42:35;;;;;;;3.50;1.98;;;16.40;99.90;;;;;;5034434;28;20052;-36
2023/08/04 06:45:01;;;;;;;8.95;2.75;;;16.50;99.90;;;;;;5018461;28;20042;-35
2023/08/04 06:47:27;;;;;;;5.50;2.00;;;16.50;99.90;;;;;;5036395;28;20179;-34
2023/08/04 06:49:53;;;;;;;6.60;2.60;;;16.50;99.90;;;;;;5036052;28;20049;-34
2023/08/04 06:52:19;;;;;;;5.45;2.58;;;16.50;99.90;;;;;;5035344;28;20490;-35
2023/08/04 06:54:45;;;;;;;6.53;2.45;;;16.50;99.90;;;;;;5034519;28;20132;-38
2023/08/04 06:57:10;;;;;;;6.65;2.05;;;16.50;99.90;;;;;;5035897;28;20444;-36
2023/08/04 06:59:36;;;;;;;7.65;2.25;;;16.60;99.90;;;;;;5034224;28;20135;-34
2023/08/04 07:02:02;;;;;;;4.30;2.05;;;16.60;99.90;;;;;;5035767;28;20045;-35
2023/08/04 07:04:28;;;;;;;6.15;2.55;;;16.60;99.90;;;;;;5034595;28;20475;-36
2023/08/04 07:06:56;;;;;;;7.63;2.60;;;16.60;99.90;;;;;;5035471;28;20107;-34
2023/08/04 07:09:22;;;;;;;4.03;1.95;;;16.60;99.90;;;;;;5035957;28;20049;-35
2023/08/04 07:11:48;;;;;;;5.80;2.05;;;16.70;99.90;;;;;;5034176;28;20045;-38
2023/08/04 07:14:14;;;;;;;6.20;1.90;;;16.80;99.90;;;;;;5035333;28;20128;-37
2023/08/04 07:16:39;;;;;;;4.03;1.95;;;16.90;99.90;;;;;;5035298;28;20479;-36
2023/08/04 07:19:05;;;;;;;7.22;1.98;;;16.90;99.90;;;;;;5034120;28;20045;-34
2023/08/04 07:21:31;;;;;;;6.05;2.08;;;17.10;99.90;;;;;;5034090;28;20048;-37
2023/08/04 07:23:56;;;;;;;5.60;1.80;;;17.50;99.90;;;;;;5035016;28;20053;-36
2023/08/04 07:26:22;;;;;;;5.18;1.95;;;17.60;99.90;;;;;;5034163;28;20080;-37
2023/08/04 07:28:48;;;;;;;9.30;1.67;;;17.70;99.90;;;;;;5035075;28;20049;-34
2023/08/04 07:31:14;;;;;;;6.30;1.50;;;17.70;99.90;;;;;;5035016;28;20048;-34
2023/08/04 07:33:40;;;;;;;7.60;1.83;;;17.70;99.90;;;;;;5035031;28;20056;-34
2023/08/04 07:36:05;;;;;;;9.13;2.53;;;17.60;99.90;;;;;;5034785;28;20049;-35
2023/08/04 07:38:31;;;;;;;6.72;2.10;;;17.60;99.90;;;;;;5034724;28;20056;-36
2023/08/04 07:40:58;;;;;;;9.77;2.10;;;17.40;99.90;;;;;;5033532;28;20045;-34
2023/08/04 07:43:25;;;;;;;10.68;1.85;;;17.20;99.90;;;;;;5034684;28;20110;-34
2023/08/04 07:45:52;;;;;;;6.25;1.65;;;17.10;99.90;;;;;;5033595;28;20136;-33
2023/08/04 07:48:18;;;;;;;7.93;1.75;;;16.90;99.90;;;;;;5017302;28;20085;-32
2023/08/04 07:50:47;;;;;;;5.28;1.42;;;16.70;99.90;;;;;;5035165;28;20088;-32
2023/08/04 07:53:13;;;;;;;7.10;1.65;;;16.60;99.90;;;;;;5034576;28;20041;-32
2023/08/04 07:55:39;;;;;;;6.95;1.70;;;16.30;99.90;;;;;;5034612;28;20365;-33
2023/08/04 07:58:06;;;;;;;4.07;1.42;;;16.20;99.90;;;;;;5033556;28;20045;-32
2023/08/04 08:00:32;;;;;;;6.07;1.80;;;16.30;99.90;;;;;;5034221;28;20140;-33
2023/08/04 08:02:57;;;;;;;5.63;2.40;;;16.40;99.90;;;;;;5033188;28;20132;-33
2023/08/04 08:05:23;;;;;;;6.10;1.73;;;16.60;99.90;;;;;;5034411;28;20046;-33
2023/08/04 08:07:49;;;;;;;5.47;2.15;;;16.80;99.90;;;;;;5033207;28;20057;-32
2023/08/04 08:10:15;;;;;;;7.43;2.10;;;16.90;99.90;;;;;;5033125;28;20099;-33
2023/08/04 08:12:41;;;;;;;9.35;2.70;;;17.40;99.90;;;;;;5034051;28;20092;-34
2023/08/04 08:15:07;;;;;;;7.55;1.88;;;17.80;99.90;;;;;;5034424;28;20132;-34
2023/08/04 08:17:33;;;;;;;5.97;2.10;;;17.90;99.90;;;;;;5034130;28;20052;-36
2023/08/04 08:19:58;;;;;;;8.85;1.83;;;18.10;99.90;;;;;;5034057;28;20071;-36
2023/08/04 08:22:24;;;;;;;5.25;1.58;;;18.20;99.90;;;;;;5033937;28;20042;-33
2023/08/04 08:24:54;;;;;;;4.35;1.50;;;17.80;99.90;;;;;;5032997;28;20049;-33
2023/08/04 08:27:20;;;;;;;1.73;0.63;;;17.00;99.90;;;;;;5033309;28;20045;-32
2023/08/04 08:29:45;;;;;;;3.90;0.68;;;16.30;99.90;;;;;;5033958;28;20049;-33
2023/08/04 08:32:11;;;;;;;6.88;1.67;;;16.10;99.90;;;;;;5032716;28;20048;-32
2023/08/04 08:34:37;;;;;;;2.58;1.02;;;16.10;99.90;;;;;;5033886;28;20087;-32
2023/08/04 08:37:08;;;;;;;4.85;1.15;;;16.10;99.90;;;;;;5034458;28;20052;-32
2023/08/04 08:39:33;;;;;;;6.85;2.30;;;16.30;99.90;;;;;;5033234;28;20049;-33
2023/08/04 08:41:59;;;;;;;6.90;1.75;;;16.70;99.90;;;;;;5034291;28;20123;-33
2023/08/04 08:44:25;;;;;;;5.90;1.67;;;17.20;99.90;;;;;;5033699;28;20228;-34
2023/08/04 08:46:51;;;;;;;8.27;1.83;;;17.30;99.90;;;;;;5034325;28;20107;-33
2023/08/04 08:49:23;;;;;;;8.45;2.20;;;17.60;99.90;;;;;;5032571;28;20118;-34
2023/08/04 08:51:51;;;;;;;5.72;1.30;;;17.80;99.90;;;;;;5033315;28;20045;-33
2023/08/04 08:54:19;;;;;;;5.82;1.00;;;18.00;99.90;;;;;;5015783;28;20545;-34
2023/08/04 08:56:45;;;;;;;7.78;2.28;;;18.10;99.90;;;;;;5033624;28;20053;-33
2023/08/04 08:59:11;;;;;;;9.38;1.58;;;17.90;1.00;;;;;;5033394;28;20061;-34
2023/08/04 09:01:37;;;;;;;7.05;1.80;;;17.70;99.90;;;;;;5032213;28;20055;-33
2023/08/04 09:04:04;;;;;;;10.25;2.75;;;17.70;99.90;;;;;;5032380;28;20553;-33
2023/08/04 09:06:30;;;;;;;7.20;2.33;;;17.80;99.90;;;;;;5032273;28;20499;-32
2023/08/04 09:08:58;;;;;;;9.85;1.98;;;17.90;99.90;;;;;;5016069;28;20061;-32
2023/08/04 09:11:24;;;;;;;8.55;1.90;;;17.70;99.90;;;;;;5032291;28;20084;-34
2023/08/04 09:13:50;;;;;;;6.85;1.70;;;17.80;99.90;;;;;;5033436;28;20471;-34
2023/08/04 09:16:16;;;;;;;5.82;1.88;;;17.60;99.90;;;;;;5033790;28;20101;-33
2023/08/04 09:18:42;;;;;;;10.45;2.80;;;17.60;99.90;;;;;;5033445;28;20494;-33
2023/08/04 09:21:08;;;;;;;11.48;1.88;;;17.60;99.90;;;;;;5033894;28;20052;-33
2023/08/04 09:23:52;;;;;;;7.72;2.05;;;17.60;99.90;;;;;;5033379;28;20045;-33
2023/08/04 09:26:18;;;;;;;6.60;1.52;;;17.50;1.00;;;;;;5033425;28;20056;-34
2023/08/04 09:28:44;;;;;;;7.30;1.90;;;17.40;99.90;;;;;;5033589;28;20498;-33
2023/08/04 09:31:13;;;;;;;6.05;1.85;;;17.40;99.90;;;;;;5033176;28;20132;-32
2023/08/04 09:33:43;;;;;;;8.10;1.65;;;17.50;99.90;;;;;;5033881;28;20041;-33
2023/08/04 09:36:11;;;;;;;7.75;1.98;;;17.60;99.90;;;;;;5032017;28;20056;-33
2023/08/04 09:38:38;;;;;;;7.85;1.40;;;17.80;99.90;;;;;;5033254;28;20472;-33
2023/08/04 09:41:06;;;;;;;4.80;1.42;;;17.90;1.00;;;;;;5033140;28;20077;-33
2023/08/04 09:43:32;;;;;;;8.82;1.85;;;18.20;29.00;;;;;;5032491;28;20128;-33
2023/08/04 09:46:01;;;;;;;10.93;2.35;;;18.20;1.00;;;;;;5033191;28;20069;-33
2023/08/04 09:48:27;;;;;;;6.22;1.52;;;18.60;1.00;;;;;;5033432;28;20120;-34
2023/08/04 09:51:14;;;;;;;7.70;1.60;;;19.50;1.00;;;;;;5032012;28;20054;-33
2023/08/04 09:53:50;;;;;;;3.22;0.82;;;19.90;99.90;;;;;;5015723;28;20041;-34
2023/08/04 09:56:18;;;;;;;5.82;0.93;;;19.20;99.90;;;;;;5032175;28;20530;-33
2023/08/04 09:58:44;;;;;;;5.90;0.82;;;18.70;1.00;;;;;;5033885;28;20388;-34
2023/08/04 10:01:11;;;;;;;3.65;0.77;;;18.90;1.00;;;;;;5031825;28;20060;-33
2023/08/04 10:03:41;;;;;;;2.78;0.95;;;19.90;88.30;;;;;;5033071;28;20053;-33
2023/08/04 10:06:07;;;;;;;5.57;1.00;;;20.70;1.00;;;;;;5034499;28;20053;-35
2023/08/04 10:08:39;;;;;;;3.38;0.75;;;21.50;99.90;;;;;;5036856;28;20092;-37
2023/08/04 10:11:06;;;;;;;1.70;0.40;;;21.50;99.90;;;;;;5036652;28;20048;-33
2023/08/04 10:13:41;;;;;;;3.13;0.50;;;20.60;95.40;;;;;;5035513;28;20475;-34
2023/08/04 10:16:12;;;;;;;4.25;1.02;;;20.20;99.90;;;;;;5036455;28;20128;-35
2023/08/04 10:18:54;;;;;;;3.30;0.90;;;20.10;99.90;;;;;;5036437;28;20057;-33
2023/08/04 10:21:25;;;;;;;3.72;0.60;;;20.20;21.00;;;;;;5036030;28;20558;-34
2023/08/04 10:23:52;;;;;;;4.10;0.93;;;20.60;1.00;;;;;;5036880;28;20049;-33
2023/08/04 10:26:18;;;;;;;2.88;1.02;;;20.30;99.60;;;;;;5035146;28;20503;-32
2023/08/04 10:29:07;;;;;;;4.05;0.80;;;19.60;76.90;;;;;;5036790;28;20049;-33
2023/08/04 10:31:52;;;;;;;7.60;1.17;;;18.90;99.90;;;;;;5036121;28;20042;-32
2023/08/04 10:34:32;;;;;;;6.65;0.77;;;19.50;99.90;;;;;;5036109;28;20057;-34
2023/08/04 10:37:06;;;;;;;4.72;0.73;;;20.80;1.00;;;;;;5036033;28;20049;-33
2023/08/04 10:39:59;;;;;;;10.60;0.50;;;21.00;99.90;;;;;;5036598;28;20438;-33
2023/08/04 10:42:27;;;;;;;2.72;0.60;;;21.30;60.40;;;;;;5030471;28;20111;-32
2023/08/04 10:44:53;;;;;;;5.57;0.80;;;20.50;1.00;;;;;;5035947;28;20053;-32
2023/08/04 10:47:45;;;;;;;3.00;0.57;;;19.80;99.90;;;;;;5034639;28;20415;-32
2023/08/04 10:50:12;;;;;;;2.85;0.65;;;19.50;1.00;;;;;;5035261;28;20038;-31
2023/08/04 10:52:39;;;;;;;3.92;0.73;;;19.90;61.60;;;;;;5034230;28;20045;-32
2023/08/04 10:55:07;;;;;;;4.35;0.82;;;19.90;99.90;;;;;;5036326;28;20058;-33
2023/08/04 10:57:34;;;;;;;4.32;0.80;;;19.90;99.90;;;;;;5034734;28;20050;-32
2023/08/04 11:00:02;;;;;;;3.92;1.00;;;20.10;99.90;;;;;;5035698;28;20061;-31
2023/08/04 11:02:27;;;;;;;2.60;0.60;;;21.00;99.90;;;;;;5035291;28;20507;-32
2023/08/04 11:04:54;;;;;;;1.92;0.57;;;21.20;99.90;;;;;;5035495;28;20085;-30
2023/08/04 11:07:21;;;;;;;3.67;0.70;;;20.60;99.90;;;;;;5035498;28;20088;-31
2023/08/04 11:09:48;;;;;;;3.38;0.82;;;19.70;99.90;;;;;;5035392;28;20133;-31
2023/08/04 11:12:15;;;;;;;3.50;1.15;;;19.10;99.90;;;;;;5035964;28;20041;-31
2023/08/04 11:14:42;;;;;;;3.55;0.60;;;18.80;1.00;;;;;;5035433;28;20050;-30
2023/08/04 11:17:15;;;;;;;3.85;0.75;;;18.70;23.30;;;;;;5035662;28;20053;-31
2023/08/04 11:19:46;;;;;;;1.58;0.95;;;18.70;25.70;;;;;;5034862;28;20056;-30
2023/08/04 11:22:13;;;;;;;4.80;0.88;;;18.90;99.90;;;;;;5035966;28;20044;-30
2023/08/04 11:24:40;;;;;;;5.00;1.17;;;19.30;1.00;;;;;;5035141;28;20038;-29
2023/08/04 11:27:07;;;;;;;5.95;0.95;;;19.40;1.00;;;;;;5035673;28;20049;-30
2023/08/04 11:29:33;;;;;;;2.22;0.90;;;19.50;1.00;;;;;;5035057;28;20128;-30
2023/08/04 11:31:59;;;;;;;4.65;0.82;;;19.70;1.00;;;;;;5034965;28;20077;-31
2023/08/04 11:34:24;;;;;;;6.05;1.48;;;19.90;1.00;;;;;;5034968;28;20049;-29
2023/08/04 11:36:50;;;;;;;3.38;0.88;;;20.20;26.20;;;;;;5033807;28;20513;-32
2023/08/04 11:39:16;;;;;;;5.30;1.20;;;20.60;1.00;;;;;;5018241;28;20085;-32
2023/08/04 11:41:43;;;;;;;4.35;0.70;;;20.90;1.00;;;;;;5035527;28;20048;-30
2023/08/04 11:44:09;;;;;;;2.45;1.00;;;20.50;1.00;;;;;;5034627;28;20049;-29
2023/08/04 11:46:35;;;;;;;3.75;0.90;;;20.00;99.90;;;;;;5034584;28;20128;-29
2023/08/04 11:49:06;;;;;;;4.03;0.90;;;19.40;99.90;;;;;;5034959;28;20128;-29
2023/08/04 11:51:32;;;;;;;4.80;0.82;;;19.50;1.00;;;;;;5034636;28;20484;-31
2023/08/04 11:53:58;;;;;;;3.45;0.88;;;20.40;1.00;;;;;;5033645;28;20049;-30
2023/08/04 11:56:24;;;;;;;3.10;0.65;;;21.50;99.90;;;;;;5034515;28;20137;-29
2023/08/04 11:58:54;;;;;;;3.83;0.90;;;21.70;92.80;;;;;;5035006;28;20128;-31
2023/08/04 12:01:28;;;;;;;3.00;0.80;;;21.60;1.00;;;;;;5035118;28;20136;-30
2023/08/04 12:03:54;;;;;;;3.85;0.85;;;21.70;16.10;;;;;;5034475;28;20042;-29
2023/08/04 12:06:22;;;;;;;8.00;1.27;;;22.40;1.00;;;;;;5034905;28;20041;-29
2023/08/04 12:08:52;;;;;;;2.83;0.40;;;21.60;1.00;;;;;;5034327;28;20107;-29
2023/08/04 12:11:19;;;;;;;2.47;0.50;;;21.20;1.00;;;;;;5034263;28;20052;-29
2023/08/04 12:13:45;;;;;;;1.80;0.43;;;21.70;1.00;;;;;;5034312;28;20095;-29
2023/08/04 12:16:12;;;;;;;3.15;0.77;;;21.40;99.90;;;;;;5034238;28;20080;-30
2023/08/04 12:18:39;;;;;;;3.03;0.85;;;21.20;99.90;;;;;;5034249;28;20137;-29
2023/08/04 12:21:05;;;;;;;1.45;0.50;;;21.00;99.90;;;;;;5034093;28;20060;-29
2023/08/04 12:23:31;;;;;;;2.47;0.75;;;20.70;1.00;;;;;;5034390;28;20045;-29
2023/08/04 12:25:57;;;;;;;2.83;0.80;;;21.40;1.00;;;;;;5034067;28;20129;-29
2023/08/04 12:28:23;;;;;;;3.28;0.63;;;22.30;99.90;;;;;;5034079;28;20368;-29
2023/08/04 12:30:50;;;;;;;4.45;1.00;;;22.10;1.00;;;;;;5033793;28;20054;-29
2023/08/04 12:33:15;;;;;;;4.65;0.77;;;21.50;99.90;;;;;;5033886;28;20046;-29
2023/08/04 12:35:41;;;;;;;1.77;0.52;;;21.40;1.00;;;;;;5033872;28;20183;-30
2023/08/04 12:38:07;;;;;;;3.20;0.70;;;21.20;1.00;;;;;;5032639;28;20056;-29
2023/08/04 12:40:34;;;;;;;5.40;1.00;;;21.30;99.90;;;;;;5033503;28;20056;-30
2023/08/04 12:43:00;;;;;;;2.53;0.70;;;21.50;1.00;;;;;;5033700;28;20084;-30
2023/08/04 12:45:26;;;;;;;7.30;1.40;;;21.50;69.80;;;;;;5032666;28;20049;-30
2023/08/04 12:47:52;;;;;;;3.35;0.95;;;21.40;53.40;;;;;;5033791;28;20096;-28